Time;durP1;ratioP1;P1;durP2;ratioP2;P2;SDS_P1;SDS_P2;PMS_P1;PMS_P2;Temp;Humidity;BMP_temperature;BMP_pressure;BME280_temperature;BME280_humidity;BME280_pressure;Samples;Min_cycle;Max_cycle;Signal;HPM_P1;HPM_P2
2021/11/19 00:00:53;;;;;;;2.55;1.80;;;22.30;39.50;;;;;;5075083;28;20391;-69
2021/11/19 00:03:20;;;;;;;2.63;1.50;;;22.30;39.60;;;;;;5074903;28;20463;-70
2021/11/19 00:05:47;;;;;;;3.15;1.70;;;22.30;39.60;;;;;;5074926;28;20387;-70
2021/11/19 00:08:15;;;;;;;2.95;1.50;;;22.30;39.60;;;;;;5074738;28;20403;-69
2021/11/19 00:10:41;;;;;;;2.80;1.20;;;22.30;40.20;;;;;;5074917;28;20380;-70
2021/11/19 00:13:07;;;;;;;2.67;1.48;;;22.30;39.70;;;;;;5073382;28;20795;-70
2021/11/19 00:15:33;;;;;;;2.67;1.60;;;22.30;39.70;;;;;;5073655;28;20395;-69
2021/11/19 00:18:00;;;;;;;3.00;1.48;;;22.20;39.60;;;;;;5073275;28;20379;-70
2021/11/19 00:20:28;;;;;;;2.38;1.20;;;22.20;39.80;;;;;;5074563;28;20422;-69
2021/11/19 00:22:59;;;;;;;3.33;1.70;;;22.30;39.80;;;;;;5073176;28;20401;-70
2021/11/19 00:25:26;;;;;;;2.78;1.67;;;22.30;39.80;;;;;;5073215;28;20544;-70
2021/11/19 00:27:53;;;;;;;4.20;2.00;;;22.30;39.70;;;;;;5074520;28;20792;-70
2021/11/19 00:30:20;;;;;;;5.72;2.50;;;22.30;39.40;;;;;;5074499;28;20388;-69
2021/11/19 00:32:46;;;;;;;5.38;2.33;;;22.30;39.40;;;;;;5074466;28;20394;-69
2021/11/19 00:35:13;;;;;;;4.53;2.20;;;22.30;39.40;;;;;;5074203;28;20380;-69
2021/11/19 00:37:40;;;;;;;4.93;2.20;;;22.30;39.20;;;;;;5074110;28;20388;-70
2021/11/19 00:40:17;;;;;;;5.45;2.28;;;22.30;39.20;;;;;;5074261;28;20498;-70
2021/11/19 00:42:43;;;;;;;3.83;2.20;;;22.30;39.10;;;;;;5074273;28;20391;-70
2021/11/19 00:45:08;;;;;;;5.28;2.53;;;22.30;39.00;;;;;;5074228;28;20418;-69
2021/11/19 00:47:34;;;;;;;5.07;2.27;;;22.30;39.00;;;;;;5074123;28;20776;-70
2021/11/19 00:50:02;;;;;;;4.68;2.13;;;22.30;39.10;;;;;;5072812;28;20434;-70
2021/11/19 00:52:28;;;;;;;3.67;1.85;;;22.30;38.80;;;;;;5072722;28;20396;-70
2021/11/19 00:54:55;;;;;;;3.10;1.97;;;22.30;38.90;;;;;;5074118;28;20387;-69
2021/11/19 00:57:21;;;;;;;4.55;1.98;;;22.30;38.80;;;;;;5073640;28;20392;-69
2021/11/19 00:59:47;;;;;;;3.83;1.90;;;22.30;38.90;;;;;;5073873;28;20407;-70
2021/11/19 01:02:23;;;;;;;3.53;1.83;;;22.30;38.80;;;;;;5073913;28;20883;-69
2021/11/19 01:04:50;;;;;;;3.15;1.90;;;22.30;38.90;;;;;;5073927;28;20445;-69
2021/11/19 01:07:18;;;;;;;3.15;1.70;;;22.30;39.00;;;;;;5073754;28;20391;-69
2021/11/19 01:09:47;;;;;;;4.35;1.77;;;22.30;38.80;;;;;;5073017;28;20388;-69
2021/11/19 01:12:15;;;;;;;2.87;1.60;;;22.30;38.80;;;;;;5073551;28;20431;-69
2021/11/19 01:15:19;;;;;;;3.13;1.60;;;22.30;38.90;;;;;;5073850;28;20419;-70
2021/11/19 01:17:53;;;;;;;2.60;1.60;;;22.30;38.80;;;;;;5073667;28;20391;-69
2021/11/19 01:20:31;;;;;;;3.17;1.50;;;22.30;38.90;;;;;;5073524;28;20415;-69
2021/11/19 01:22:58;;;;;;;3.63;1.80;;;22.30;38.70;;;;;;5073304;28;20434;-70
2021/11/19 01:25:29;;;;;;;2.70;1.48;;;22.30;38.90;;;;;;5073321;28;20473;-69
2021/11/19 01:27:56;;;;;;;2.92;1.67;;;22.30;38.70;;;;;;5072242;28;20404;-70
2021/11/19 01:30:31;;;;;;;3.28;1.70;;;22.30;38.70;;;;;;5073176;28;20403;-70
2021/11/19 01:32:57;;;;;;;2.88;1.60;;;22.30;38.60;;;;;;5073278;28;20452;-69
2021/11/19 01:35:24;;;;;;;2.95;1.50;;;22.40;38.70;;;;;;5073224;28;20388;-69
2021/11/19 01:37:50;;;;;;;2.70;1.40;;;22.30;38.70;;;;;;5071967;28;20395;-69
2021/11/19 01:40:19;;;;;;;3.00;1.60;;;22.40;38.80;;;;;;5073042;28;20426;-69
2021/11/19 01:42:52;;;;;;;2.67;1.48;;;22.40;38.70;;;;;;5073068;28;20459;-70
2021/11/19 01:45:31;;;;;;;2.38;1.40;;;22.40;38.80;;;;;;5071902;28;20479;-69
2021/11/19 01:47:58;;;;;;;2.40;1.40;;;22.40;38.70;;;;;;5072467;28;20388;-69
2021/11/19 01:50:26;;;;;;;1.95;1.30;;;22.40;38.70;;;;;;5072886;28;20386;-70
2021/11/19 01:53:08;;;;;;;2.83;1.50;;;22.40;38.60;;;;;;5072830;28;20483;-70
2021/11/19 01:55:39;;;;;;;2.83;1.48;;;22.40;38.50;;;;;;5072523;28;20374;-69
2021/11/19 01:58:13;;;;;;;2.50;1.37;;;22.40;39.20;;;;;;5072774;28;20395;-69
2021/11/19 02:00:41;;;;;;;2.33;1.30;;;22.40;38.40;;;;;;5071537;28;20885;-69
2021/11/19 02:03:11;;;;;;;2.00;1.10;;;22.40;38.50;;;;;;5071473;28;20400;-69
2021/11/19 02:05:49;;;;;;;2.20;1.30;;;22.40;38.40;;;;;;5072605;28;20660;-69
2021/11/19 02:08:18;;;;;;;1.98;1.20;;;22.40;38.70;;;;;;5071338;28;20399;-69
2021/11/19 02:11:25;;;;;;;2.25;1.30;;;22.30;38.40;;;;;;5071318;28;20403;-69
2021/11/19 02:14:14;;;;;;;2.27;1.30;;;22.30;38.60;;;;;;5071520;28;20490;-69
2021/11/19 02:16:44;;;;;;;1.70;1.15;;;22.30;38.50;;;;;;5071079;28;20445;-70
2021/11/19 02:19:35;;;;;;;2.00;1.20;;;22.40;38.60;;;;;;5070929;28;20415;-69
2021/11/19 02:22:09;;;;;;;2.15;1.40;;;22.40;38.50;;;;;;5072365;28;20391;-69
2021/11/19 02:24:43;;;;;;;2.20;1.20;;;22.30;38.60;;;;;;5071711;28;20416;-70
2021/11/19 02:27:28;;;;;;;2.55;1.58;;;22.30;38.60;;;;;;5070872;28;20533;-69
2021/11/19 02:30:02;;;;;;;1.63;1.00;;;22.30;38.60;;;;;;5071959;28;20391;-69
2021/11/19 02:32:37;;;;;;;1.67;1.10;;;22.30;38.60;;;;;;5071929;28;20478;-69
2021/11/19 02:35:05;;;;;;;2.08;1.17;;;22.30;38.60;;;;;;5070999;28;20553;-69
2021/11/19 02:37:39;;;;;;;2.10;1.13;;;22.30;38.50;;;;;;5071813;28;20387;-70
2021/11/19 02:40:20;;;;;;;2.30;1.10;;;22.30;38.60;;;;;;5070691;28;20419;-69
2021/11/19 02:43:02;;;;;;;1.83;1.20;;;22.30;38.60;;;;;;5072003;28;20892;-69
2021/11/19 02:45:33;;;;;;;1.67;1.00;;;22.30;39.00;;;;;;5071916;28;20394;-70
2021/11/19 02:48:00;;;;;;;2.10;1.30;;;22.30;39.10;;;;;;5070481;28;20386;-69
2021/11/19 02:50:26;;;;;;;2.55;1.27;;;22.30;39.00;;;;;;5070703;28;20388;-70
2021/11/19 02:52:55;;;;;;;1.98;1.20;;;22.20;39.00;;;;;;5072085;28;20387;-70
2021/11/19 02:55:30;;;;;;;1.70;1.10;;;22.20;39.00;;;;;;5071756;28;20376;-69
2021/11/19 02:57:56;;;;;;;1.77;1.10;;;22.20;39.30;;;;;;5071244;28;20388;-69
2021/11/19 03:00:46;;;;;;;1.98;0.90;;;22.20;39.10;;;;;;5070791;28;20468;-69
2021/11/19 03:03:12;;;;;;;1.60;1.20;;;22.20;39.00;;;;;;5071880;28;20375;-70
2021/11/19 03:05:38;;;;;;;1.95;1.20;;;22.20;38.70;;;;;;5071800;28;20478;-70
2021/11/19 03:08:04;;;;;;;1.53;1.10;;;22.20;38.90;;;;;;5071824;28;20551;-70
2021/11/19 03:10:35;;;;;;;2.00;1.20;;;22.20;39.00;;;;;;5071790;28;20387;-69
2021/11/19 03:13:05;;;;;;;1.77;1.23;;;22.20;39.00;;;;;;5070404;28;20737;-70
2021/11/19 03:15:34;;;;;;;2.50;1.25;;;22.20;38.80;;;;;;5071699;28;20883;-69
2021/11/19 03:18:00;;;;;;;2.40;1.30;;;22.10;39.00;;;;;;5071771;28;20455;-70
2021/11/19 03:20:26;;;;;;;2.10;1.10;;;22.10;38.90;;;;;;5071525;28;20943;-69
2021/11/19 03:22:53;;;;;;;1.88;1.20;;;22.10;38.80;;;;;;5071701;28;20383;-70
2021/11/19 03:25:23;;;;;;;1.70;1.10;;;22.10;39.10;;;;;;5071490;28;20399;-69
2021/11/19 03:27:49;;;;;;;1.60;1.00;;;22.10;39.20;;;;;;5070290;28;20400;-70
2021/11/19 03:30:17;;;;;;;1.57;1.00;;;22.10;39.20;;;;;;5070330;28;20384;-69
2021/11/19 03:32:44;;;;;;;1.70;1.00;;;22.00;39.20;;;;;;5071602;28;20457;-70
2021/11/19 03:35:14;;;;;;;1.50;1.10;;;22.10;39.10;;;;;;5071573;28;20896;-70
2021/11/19 03:37:41;;;;;;;1.60;1.10;;;22.10;39.20;;;;;;5071535;28;20384;-70
2021/11/19 03:40:09;;;;;;;1.90;1.10;;;22.00;39.20;;;;;;5070195;28;20471;-69
2021/11/19 03:42:35;;;;;;;1.70;1.10;;;22.00;39.20;;;;;;5071341;28;20392;-69
2021/11/19 03:45:03;;;;;;;1.93;1.10;;;22.00;39.20;;;;;;5070312;28;20408;-69
2021/11/19 03:47:34;;;;;;;1.90;1.25;;;22.00;39.10;;;;;;5071293;28;20384;-69
2021/11/19 03:50:03;;;;;;;1.98;1.10;;;22.10;39.10;;;;;;5071250;28;20874;-69
2021/11/19 03:52:32;;;;;;;1.60;0.90;;;22.10;39.20;;;;;;5071296;28;20434;-69
2021/11/19 03:55:01;;;;;;;1.83;1.10;;;22.10;39.00;;;;;;5071503;28;20400;-69
2021/11/19 03:57:28;;;;;;;1.25;0.90;;;22.10;39.10;;;;;;5071247;28;20371;-70
2021/11/19 03:59:55;;;;;;;1.48;0.90;;;22.10;39.00;;;;;;5071068;28;20422;-69
2021/11/19 04:02:23;;;;;;;1.80;1.10;;;22.10;39.20;;;;;;5069886;28;20387;-69
2021/11/19 04:04:49;;;;;;;1.73;1.30;;;22.00;39.00;;;;;;5071206;28;20896;-69
2021/11/19 04:07:17;;;;;;;2.42;1.45;;;21.90;38.70;;;;;;5071207;28;20411;-69
2021/11/19 04:09:44;;;;;;;3.30;1.50;;;21.80;38.80;;;;;;5071303;28;20391;-70
2021/11/19 04:12:12;;;;;;;5.15;3.70;;;21.80;39.30;;;;;;5074849;28;20777;-70
2021/11/19 04:14:38;;;;;;;4.50;2.67;;;21.90;40.10;;;;;;5074694;28;20448;-69
2021/11/19 04:17:05;;;;;;;5.53;3.40;;;21.90;40.60;;;;;;5074327;28;20474;-69
2021/11/19 04:19:32;;;;;;;3.40;2.40;;;22.00;41.40;;;;;;5074640;28;20412;-69
2021/11/19 04:22:02;;;;;;;3.20;1.98;;;21.90;39.90;;;;;;5074585;28;20436;-70
2021/11/19 04:24:32;;;;;;;3.90;1.90;;;21.80;40.00;;;;;;5073073;28;20486;-70
2021/11/19 04:26:58;;;;;;;4.17;1.90;;;21.70;40.20;;;;;;5073276;28;20428;-70
2021/11/19 04:29:24;;;;;;;5.32;1.98;;;21.70;40.60;;;;;;5072894;28;20395;-69
2021/11/19 04:31:50;;;;;;;4.50;1.88;;;21.80;40.90;;;;;;5074456;28;20481;-70
2021/11/19 04:34:16;;;;;;;3.40;1.43;;;21.80;40.90;;;;;;5074456;28;20412;-69
2021/11/19 04:36:42;;;;;;;3.30;1.87;;;21.80;40.20;;;;;;5074447;28;20462;-69
2021/11/19 04:39:09;;;;;;;3.33;1.85;;;21.70;39.80;;;;;;5074339;28;20553;-70
2021/11/19 04:41:35;;;;;;;3.65;1.80;;;21.60;39.90;;;;;;5074336;28;20737;-70
2021/11/19 04:44:02;;;;;;;2.60;1.50;;;21.60;40.20;;;;;;5073138;28;20394;-70
2021/11/19 04:46:28;;;;;;;3.13;1.40;;;21.60;40.20;;;;;;5073954;28;20384;-70
2021/11/19 04:48:54;;;;;;;2.40;1.52;;;21.60;40.10;;;;;;5073973;28;20387;-69
2021/11/19 04:51:26;;;;;;;2.50;1.50;;;21.60;40.10;;;;;;5073981;28;20481;-69
2021/11/19 04:53:52;;;;;;;3.15;1.30;;;21.50;39.50;;;;;;5073732;28;20445;-70
2021/11/19 04:56:18;;;;;;;3.03;1.40;;;21.50;39.90;;;;;;5072812;28;20396;-71
2021/11/19 04:58:44;;;;;;;2.10;1.40;;;21.40;40.00;;;;;;5074013;28;20400;-70
2021/11/19 05:01:17;;;;;;;4.55;1.58;;;21.50;40.20;;;;;;5071083;28;20411;-70
2021/11/19 05:03:44;;;;;;;5.70;1.48;;;21.50;40.10;;;;;;5073866;28;20419;-69
2021/11/19 05:06:10;;;;;;;3.60;1.40;;;21.50;40.10;;;;;;5073426;28;20392;-69
2021/11/19 05:08:36;;;;;;;3.60;1.35;;;21.40;40.00;;;;;;5073841;28;20379;-69
2021/11/19 05:11:04;;;;;;;2.30;1.30;;;21.30;40.10;;;;;;5069923;28;20420;-71
2021/11/19 05:13:32;;;;;;;2.00;1.27;;;21.30;40.00;;;;;;5071029;28;20414;-70
2021/11/19 05:16:01;;;;;;;2.80;1.20;;;21.30;40.10;;;;;;5070053;28;20907;-69
2021/11/19 05:18:28;;;;;;;2.17;1.42;;;21.40;40.20;;;;;;5071706;28;20400;-69
2021/11/19 05:20:55;;;;;;;1.85;1.33;;;21.30;40.00;;;;;;5072951;28;20396;-69
2021/11/19 05:23:21;;;;;;;2.55;1.30;;;21.40;40.00;;;;;;5072140;28;20483;-69
2021/11/19 05:25:48;;;;;;;3.17;1.38;;;21.40;40.20;;;;;;5072390;28;20395;-69
2021/11/19 05:28:16;;;;;;;2.92;1.38;;;21.40;40.40;;;;;;5072274;28;20415;-69
2021/11/19 05:30:42;;;;;;;2.03;1.10;;;21.50;40.70;;;;;;5071064;28;20406;-69
2021/11/19 05:33:11;;;;;;;2.03;1.20;;;21.50;40.50;;;;;;5055888;28;20740;-69
2021/11/19 05:35:37;;;;;;;3.30;1.25;;;21.60;40.60;;;;;;5053107;28;20397;-69
2021/11/19 05:38:04;;;;;;;3.10;1.20;;;21.70;40.50;;;;;;5052980;28;20385;-70
2021/11/19 05:40:30;;;;;;;2.78;1.00;;;21.70;40.50;;;;;;5052712;28;21074;-70
2021/11/19 05:42:56;;;;;;;1.95;1.00;;;21.70;40.50;;;;;;5052842;28;20472;-70
2021/11/19 05:45:25;;;;;;;2.23;1.20;;;21.60;40.40;;;;;;5057623;28;20477;-69
2021/11/19 05:47:50;;;;;;;1.92;1.10;;;21.60;40.30;;;;;;5070395;28;20457;-71
2021/11/19 05:50:19;;;;;;;2.03;1.10;;;21.60;40.20;;;;;;5052485;28;20899;-69
2021/11/19 05:52:46;;;;;;;3.03;1.33;;;21.70;39.70;;;;;;5052272;28;20389;-70
2021/11/19 05:55:15;;;;;;;3.55;1.38;;;21.80;39.20;;;;;;5052541;28;20424;-70
2021/11/19 05:57:42;;;;;;;2.50;0.90;;;21.80;39.30;;;;;;5052532;28;20386;-70
2021/11/19 06:00:20;;;;;;;6.63;1.40;;;21.90;39.80;;;;;;5052109;28;20417;-71
2021/11/19 06:02:45;;;;;;;6.20;1.40;;;21.80;40.70;;;;;;5051718;28;20824;-69
2021/11/19 06:05:11;;;;;;;5.78;1.50;;;21.80;40.60;;;;;;5051968;28;20460;-71
2021/11/19 06:07:38;;;;;;;7.28;1.52;;;21.80;40.50;;;;;;5050943;28;20390;-71
2021/11/19 06:10:06;;;;;;;12.80;1.60;;;21.90;40.30;;;;;;5052226;28;20401;-70
2021/11/19 06:12:44;;;;;;;7.80;1.60;;;21.80;41.20;;;;;;5052118;28;20385;-70
2021/11/19 06:15:15;;;;;;;5.50;1.75;;;21.80;41.30;;;;;;5050841;28;21001;-70
2021/11/19 06:17:45;;;;;;;3.10;1.20;;;21.80;41.10;;;;;;5051687;28;20425;-72
2021/11/19 06:20:28;;;;;;;7.05;1.33;;;21.80;40.50;;;;;;5052075;28;20424;-69
2021/11/19 06:23:03;;;;;;;4.07;1.20;;;21.80;40.20;;;;;;5052279;28;20402;-70
2021/11/19 06:25:31;;;;;;;4.75;1.40;;;21.90;40.10;;;;;;5050681;28;20417;-71
2021/11/19 06:28:00;;;;;;;3.72;1.40;;;21.80;40.00;;;;;;5052183;28;20393;-71
2021/11/19 06:30:27;;;;;;;3.38;1.10;;;21.80;39.90;;;;;;5052243;28;20801;-71
2021/11/19 06:32:53;;;;;;;3.95;1.27;;;21.90;39.90;;;;;;5052223;28;20434;-70
2021/11/19 06:35:19;;;;;;;3.03;1.45;;;21.80;39.80;;;;;;5051978;28;20469;-72
2021/11/19 06:37:45;;;;;;;5.67;1.60;;;21.80;39.80;;;;;;5051797;28;20484;-68
2021/11/19 06:40:17;;;;;;;7.57;1.27;;;21.90;39.80;;;;;;5051768;28;20413;-70
2021/11/19 06:42:45;;;;;;;3.78;1.67;;;21.90;40.40;;;;;;5051792;28;20393;-70
2021/11/19 06:45:14;;;;;;;6.28;1.50;;;21.80;39.80;;;;;;5051964;28;20909;-71
2021/11/19 06:47:41;;;;;;;3.63;1.33;;;21.80;39.70;;;;;;5052034;28;20792;-70
2021/11/19 06:50:07;;;;;;;3.70;1.58;;;21.80;39.60;;;;;;5050579;28;20445;-70
2021/11/19 06:52:33;;;;;;;3.85;1.42;;;21.70;39.50;;;;;;5051724;28;20424;-71
2021/11/19 06:54:59;;;;;;;4.63;1.35;;;21.70;39.50;;;;;;5051816;28;20417;-71
2021/11/19 06:57:24;;;;;;;2.17;1.27;;;21.70;39.50;;;;;;5050614;28;20389;-71
2021/11/19 06:59:50;;;;;;;5.23;1.30;;;21.70;39.40;;;;;;5051812;28;20436;-71
2021/11/19 07:02:16;;;;;;;3.95;1.30;;;21.70;39.30;;;;;;5051431;28;20385;-72
2021/11/19 07:04:41;;;;;;;4.90;1.60;;;21.80;39.40;;;;;;5051246;28;20394;-70
2021/11/19 07:07:08;;;;;;;4.32;1.30;;;21.70;39.50;;;;;;5051630;28;20393;-70
2021/11/19 07:09:37;;;;;;;4.60;1.45;;;21.70;39.60;;;;;;5050371;28;20398;-71
2021/11/19 07:12:04;;;;;;;5.20;1.20;;;21.80;39.50;;;;;;5051594;28;20385;-71
2021/11/19 07:14:30;;;;;;;2.78;1.30;;;21.80;39.40;;;;;;5050324;28;20421;-71
2021/11/19 07:16:56;;;;;;;3.03;1.52;;;21.80;39.30;;;;;;5051641;28;20863;-71
2021/11/19 07:19:23;;;;;;;2.77;1.20;;;21.80;39.40;;;;;;5051503;28;20479;-70
2021/11/19 07:21:53;;;;;;;3.03;1.30;;;21.90;39.40;;;;;;5051729;28;20381;-71
2021/11/19 07:24:19;;;;;;;1.65;1.10;;;21.80;39.40;;;;;;5051384;28;20406;-71
2021/11/19 07:26:45;;;;;;;3.42;1.20;;;21.80;39.50;;;;;;5050321;28;20394;-71
2021/11/19 07:29:11;;;;;;;3.92;1.35;;;21.80;39.60;;;;;;5050178;28;20977;-72
2021/11/19 07:31:37;;;;;;;2.40;1.30;;;21.80;39.60;;;;;;5051418;28;20404;-71
2021/11/19 07:34:04;;;;;;;4.03;1.40;;;21.80;39.40;;;;;;5051306;28;20385;-70
2021/11/19 07:36:30;;;;;;;2.70;1.10;;;21.80;39.50;;;;;;5051194;28;20863;-70
2021/11/19 07:38:56;;;;;;;4.85;1.15;;;21.90;39.60;;;;;;5050160;28;20495;-70
2021/11/19 07:41:23;;;;;;;5.35;1.13;;;21.90;39.60;;;;;;5050308;28;20385;-71
2021/11/19 07:43:49;;;;;;;33.80;3.45;;;21.90;39.60;;;;;;5051535;28;20470;-71
2021/11/19 07:46:20;;;;;;;13.55;1.70;;;21.90;39.70;;;;;;5054025;28;20392;-71
2021/11/19 07:48:46;;;;;;;12.30;1.55;;;21.90;39.60;;;;;;5055452;28;20412;-71
2021/11/19 07:51:16;;;;;;;14.37;1.83;;;21.90;39.70;;;;;;5054438;28;20988;-70
2021/11/19 07:53:44;;;;;;;24.58;3.95;;;21.90;39.90;;;;;;5055300;28;20389;-71
2021/11/19 07:56:11;;;;;;;19.50;2.92;;;21.80;40.00;;;;;;5055183;28;20389;-70
2021/11/19 07:58:37;;;;;;;20.80;2.75;;;21.80;39.90;;;;;;5053465;28;20827;-69
2021/11/19 08:01:03;;;;;;;12.43;2.03;;;21.90;39.90;;;;;;5055308;28;20398;-68
2021/11/19 08:03:29;;;;;;;17.80;2.47;;;21.80;40.20;;;;;;5059682;28;20478;-70
2021/11/19 08:05:57;;;;;;;13.88;2.60;;;21.90;40.40;;;;;;5074741;28;20479;-71
2021/11/19 08:08:24;;;;;;;9.60;2.20;;;21.90;40.00;;;;;;5074548;28;20380;-69
2021/11/19 08:10:52;;;;;;;12.63;1.90;;;21.90;40.30;;;;;;5073124;28;20391;-67
2021/11/19 08:13:18;;;;;;;11.47;2.07;;;22.00;40.40;;;;;;5074435;28;20390;-70
2021/11/19 08:15:44;;;;;;;7.53;1.80;;;22.00;40.30;;;;;;5074031;28;20924;-70
2021/11/19 08:18:21;;;;;;;7.78;1.70;;;22.00;40.10;;;;;;5061755;28;20402;-71
2021/11/19 08:20:50;;;;;;;6.88;1.80;;;22.00;40.10;;;;;;5071966;28;20411;-70
2021/11/19 08:23:23;;;;;;;9.63;1.73;;;22.00;39.90;;;;;;5072810;28;20399;-70
2021/11/19 08:25:50;;;;;;;8.40;2.03;;;21.90;39.70;;;;;;5074358;28;20407;-70
2021/11/19 08:28:17;;;;;;;6.82;1.38;;;21.90;39.70;;;;;;5068600;28;20388;-70
2021/11/19 08:30:49;;;;;;;4.72;1.60;;;21.90;39.60;;;;;;5071528;28;20387;-70
2021/11/19 08:33:15;;;;;;;5.47;1.45;;;21.90;39.50;;;;;;5072819;28;20395;-70
2021/11/19 08:35:42;;;;;;;6.25;1.48;;;21.90;39.40;;;;;;5073982;28;20486;-71
2021/11/19 08:38:20;;;;;;;4.65;1.60;;;21.90;39.30;;;;;;5073982;28;20399;-71
2021/11/19 08:40:47;;;;;;;3.60;1.40;;;21.90;39.30;;;;;;5074104;28;20403;-70
2021/11/19 08:43:16;;;;;;;4.88;1.52;;;21.90;39.10;;;;;;5072630;28;20478;-70
2021/11/19 08:45:44;;;;;;;5.88;1.60;;;21.80;39.10;;;;;;5073837;28;20456;-71
2021/11/19 08:48:10;;;;;;;5.38;1.73;;;21.80;39.20;;;;;;5072494;28;20788;-71
2021/11/19 08:50:39;;;;;;;4.70;1.70;;;21.70;39.30;;;;;;5073606;28;20471;-69
2021/11/19 08:53:09;;;;;;;4.15;1.42;;;21.60;39.40;;;;;;5072187;28;20399;-70
2021/11/19 08:55:39;;;;;;;3.28;1.48;;;21.60;39.40;;;;;;5070480;28;20386;-71
2021/11/19 08:58:05;;;;;;;3.33;1.50;;;21.60;39.50;;;;;;5052405;28;20392;-70
2021/11/19 09:00:35;;;;;;;2.65;1.60;;;21.60;39.50;;;;;;5053191;28;20417;-70
2021/11/19 09:03:02;;;;;;;3.17;1.55;;;21.50;39.50;;;;;;5052437;28;20474;-70
2021/11/19 09:05:29;;;;;;;3.00;1.42;;;21.50;39.50;;;;;;5053069;28;20417;-70
2021/11/19 09:07:55;;;;;;;3.17;1.50;;;21.50;39.60;;;;;;5052508;28;20476;-70
2021/11/19 09:10:22;;;;;;;3.28;1.42;;;21.40;39.70;;;;;;5052409;28;20559;-71
2021/11/19 09:12:49;;;;;;;2.50;1.30;;;21.40;39.60;;;;;;5051039;28;20958;-70
2021/11/19 09:15:17;;;;;;;3.38;1.35;;;21.40;39.60;;;;;;5052038;28;20412;-70
2021/11/19 09:17:46;;;;;;;3.33;1.50;;;21.40;39.70;;;;;;5053396;28;20385;-67
2021/11/19 09:20:11;;;;;;;3.20;1.50;;;21.30;39.60;;;;;;5053302;28;20513;-70
2021/11/19 09:23:08;;;;;;;2.88;1.45;;;21.30;39.70;;;;;;5053250;28;20972;-70
2021/11/19 09:25:35;;;;;;;2.55;1.30;;;21.30;39.80;;;;;;5048393;28;20479;-70
2021/11/19 09:28:02;;;;;;;2.78;1.20;;;21.30;39.70;;;;;;5051696;28;20390;-70
2021/11/19 09:30:36;;;;;;;2.40;1.30;;;21.30;39.80;;;;;;5052908;28;20390;-70
2021/11/19 09:33:05;;;;;;;3.13;1.55;;;21.30;39.80;;;;;;5053111;28;20421;-70
2021/11/19 09:35:33;;;;;;;2.05;1.20;;;21.20;40.00;;;;;;5052864;28;20390;-70
2021/11/19 09:38:00;;;;;;;3.80;1.55;;;21.20;40.10;;;;;;5052827;28;20385;-70
2021/11/19 09:40:35;;;;;;;2.65;1.52;;;21.10;40.70;;;;;;5054495;28;20426;-71
2021/11/19 09:43:23;;;;;;;3.67;1.73;;;21.20;41.90;;;;;;5055776;28;20368;-70
2021/11/19 09:46:19;;;;;;;2.38;1.50;;;21.20;41.50;;;;;;5067864;28;20845;-70
2021/11/19 09:49:05;;;;;;;2.63;1.70;;;21.30;40.80;;;;;;5069159;28;20448;-70
2021/11/19 09:51:39;;;;;;;3.23;1.53;;;21.20;40.70;;;;;;5052787;28;20555;-69
2021/11/19 09:54:27;;;;;;;3.08;1.65;;;21.20;41.30;;;;;;5064805;28;20384;-71
2021/11/19 09:57:24;;;;;;;2.45;1.23;;;21.20;41.70;;;;;;5067631;28;20824;-71
2021/11/19 10:00:15;;;;;;;3.35;1.73;;;21.30;41.20;;;;;;5056227;28;20838;-71
2021/11/19 10:02:49;;;;;;;2.72;1.30;;;21.30;40.70;;;;;;5071057;28;20758;-70
2021/11/19 10:05:45;;;;;;;2.55;1.50;;;21.40;40.40;;;;;;5072750;28;20500;-71
2021/11/19 10:08:27;;;;;;;2.90;1.42;;;21.40;40.10;;;;;;5070140;28;20398;-70
2021/11/19 10:11:04;;;;;;;3.15;1.40;;;21.50;40.10;;;;;;5052463;28;20390;-70
2021/11/19 10:13:38;;;;;;;2.63;1.40;;;21.50;39.90;;;;;;5051980;28;20393;-70
2021/11/19 10:16:25;;;;;;;2.58;1.35;;;21.50;39.80;;;;;;5050580;28;20837;-72
2021/11/19 10:19:05;;;;;;;3.00;1.33;;;21.60;39.70;;;;;;5050372;28;20760;-70
2021/11/19 10:21:40;;;;;;;7.00;1.87;;;21.50;39.50;;;;;;5064297;28;20391;-70
2021/11/19 10:24:20;;;;;;;3.28;1.50;;;21.50;40.00;;;;;;5071459;28;20486;-70
2021/11/19 10:26:46;;;;;;;5.53;1.60;;;21.50;40.40;;;;;;5070201;28;20396;-71
2021/11/19 10:29:22;;;;;;;4.35;1.50;;;21.60;40.40;;;;;;5070613;28;20784;-71
2021/11/19 10:31:50;;;;;;;2.90;1.30;;;21.60;39.90;;;;;;5071923;28;20403;-70
2021/11/19 10:34:24;;;;;;;3.85;1.52;;;21.60;39.80;;;;;;5070483;28;20396;-71
2021/11/19 10:37:08;;;;;;;3.00;1.50;;;21.70;39.70;;;;;;5070927;28;20474;-71
2021/11/19 10:39:43;;;;;;;2.72;1.30;;;21.80;39.60;;;;;;5070525;28;20942;-71
2021/11/19 10:42:26;;;;;;;1.87;1.27;;;21.80;39.40;;;;;;5071694;28;20469;-71
2021/11/19 10:45:18;;;;;;;3.15;1.30;;;21.90;39.30;;;;;;5071654;28;20469;-71
2021/11/19 10:48:10;;;;;;;3.00;1.40;;;21.90;39.30;;;;;;5070386;28;20893;-70
2021/11/19 10:50:54;;;;;;;3.33;1.20;;;21.90;39.30;;;;;;5071187;28;20758;-71
2021/11/19 10:53:57;;;;;;;3.70;1.23;;;21.90;39.30;;;;;;5070067;28;20388;-70
2021/11/19 10:56:44;;;;;;;3.63;1.53;;;21.90;39.30;;;;;;5066864;28;20428;-71
2021/11/19 10:59:36;;;;;;;2.00;1.10;;;21.90;39.20;;;;;;5070844;28;20412;-70
2021/11/19 11:02:27;;;;;;;2.95;1.33;;;21.90;39.10;;;;;;5070033;28;20396;-70
2021/11/19 11:04:55;;;;;;;1.77;1.20;;;21.90;39.00;;;;;;5071435;28;20407;-71
2021/11/19 11:07:34;;;;;;;2.33;1.08;;;22.00;39.00;;;;;;5070225;28;20402;-72
2021/11/19 11:10:02;;;;;;;2.42;1.20;;;22.00;39.00;;;;;;5069949;28;20797;-71
2021/11/19 11:12:31;;;;;;;1.75;1.10;;;22.00;38.90;;;;;;5071123;28;20392;-71
2021/11/19 11:15:23;;;;;;;1.25;1.00;;;22.00;38.90;;;;;;5070124;28;20387;-71
2021/11/19 11:18:08;;;;;;;1.70;1.08;;;22.00;38.90;;;;;;5051932;28;20853;-71
2021/11/19 11:20:38;;;;;;;1.60;1.08;;;22.00;38.80;;;;;;5071302;28;20412;-70
2021/11/19 11:23:26;;;;;;;1.65;1.02;;;22.00;38.80;;;;;;5075515;28;20391;-70
2021/11/19 11:26:20;;;;;;;1.90;1.00;;;22.00;38.70;;;;;;5075137;28;20391;-71
2021/11/19 11:28:53;;;;;;;1.67;1.20;;;22.00;38.70;;;;;;5073589;28;20402;-71
2021/11/19 11:31:18;;;;;;;1.52;1.10;;;22.00;38.70;;;;;;5075234;28;20375;-70
2021/11/19 11:33:58;;;;;;;1.50;1.02;;;22.00;38.70;;;;;;5075121;28;20464;-71
2021/11/19 11:36:34;;;;;;;2.67;0.98;;;22.00;38.70;;;;;;5075091;28;20869;-70
2021/11/19 11:39:15;;;;;;;1.40;1.02;;;22.00;38.70;;;;;;5075058;28;20418;-71
2021/11/19 11:41:54;;;;;;;2.27;1.20;;;22.00;38.70;;;;;;5075176;28;20493;-71
2021/11/19 11:44:40;;;;;;;1.60;1.08;;;22.00;38.60;;;;;;5073737;28;20399;-71
2021/11/19 11:47:16;;;;;;;2.60;0.98;;;22.00;38.70;;;;;;5074677;28;20375;-70
2021/11/19 11:49:47;;;;;;;2.58;1.17;;;22.00;38.70;;;;;;5075052;28;20392;-69
2021/11/19 11:52:29;;;;;;;1.85;1.10;;;21.90;38.70;;;;;;5075006;28;20379;-69
2021/11/19 11:55:25;;;;;;;2.75;1.45;;;21.90;39.00;;;;;;5073481;28;20400;-69
2021/11/19 11:57:53;;;;;;;3.75;1.20;;;21.90;39.00;;;;;;5074479;28;20471;-70
2021/11/19 12:00:46;;;;;;;3.88;1.27;;;21.90;39.20;;;;;;5073318;28;20419;-69
2021/11/19 12:03:26;;;;;;;5.07;1.10;;;21.80;39.60;;;;;;5073660;28;20897;-69
2021/11/19 12:05:56;;;;;;;3.72;1.00;;;21.90;40.30;;;;;;5074650;28;20390;-68
2021/11/19 12:08:41;;;;;;;5.82;1.23;;;21.80;40.70;;;;;;5074842;28;20387;-69
2021/11/19 12:11:33;;;;;;;4.43;1.30;;;21.80;42.70;;;;;;5074429;28;20415;-70
2021/11/19 12:14:22;;;;;;;3.67;1.10;;;21.80;42.50;;;;;;5057886;28;20719;-70
2021/11/19 12:16:50;;;;;;;5.85;1.10;;;21.80;42.80;;;;;;5073613;28;20765;-70
2021/11/19 12:19:16;;;;;;;4.15;1.20;;;21.80;42.40;;;;;;5072680;28;20809;-70
2021/11/19 12:21:53;;;;;;;8.00;1.88;;;21.90;42.40;;;;;;5075138;28;20487;-70
2021/11/19 12:24:54;;;;;;;9.25;1.90;;;21.90;44.20;;;;;;5072827;28;20408;-70
2021/11/19 12:27:43;;;;;;;4.93;1.60;;;22.10;45.20;;;;;;5071912;28;20399;-70
2021/11/19 12:30:16;;;;;;;5.85;1.50;;;22.30;44.80;;;;;;5073807;28;20384;-70
2021/11/19 12:32:47;;;;;;;5.05;1.50;;;22.40;45.00;;;;;;5072364;28;20390;-70
2021/11/19 12:35:31;;;;;;;3.42;1.50;;;22.40;45.00;;;;;;5073743;28;20384;-69
2021/11/19 12:38:09;;;;;;;5.63;1.40;;;22.50;45.10;;;;;;5072557;28;20402;-71
2021/11/19 12:40:50;;;;;;;2.72;1.33;;;22.50;44.60;;;;;;5073580;28;20805;-71
2021/11/19 12:43:40;;;;;;;3.50;1.30;;;22.50;45.00;;;;;;5072527;28;20400;-70
2021/11/19 12:46:12;;;;;;;5.22;1.30;;;22.50;45.20;;;;;;5074004;28;20407;-70
2021/11/19 12:48:57;;;;;;;5.03;1.10;;;22.50;44.40;;;;;;5073640;28;20409;-71
2021/11/19 12:51:31;;;;;;;4.65;1.35;;;22.50;44.20;;;;;;5062986;28;20395;-71
2021/11/19 12:54:21;;;;;;;2.88;1.23;;;22.60;44.20;;;;;;5072896;28;20384;-71
2021/11/19 12:57:15;;;;;;;4.80;1.50;;;22.60;44.10;;;;;;5069985;28;20858;-71
2021/11/19 12:59:52;;;;;;;5.35;1.30;;;22.70;44.40;;;;;;5067751;28;20419;-70
2021/11/19 13:02:40;;;;;;;4.07;1.30;;;22.80;44.90;;;;;;5059494;28;20881;-71
2021/11/19 13:05:26;;;;;;;5.22;1.48;;;22.80;44.40;;;;;;5064374;28;20389;-70
2021/11/19 13:08:09;;;;;;;3.77;1.30;;;22.80;44.20;;;;;;5061832;28;20380;-70
2021/11/19 13:10:42;;;;;;;4.75;1.10;;;22.80;44.60;;;;;;5059588;28;20472;-70